Time;durP1;ratioP1;P1;durP2;ratioP2;P2;SDS_P1;SDS_P2;PMS_P1;PMS_P2;Temp;Humidity;BMP_temperature;BMP_pressure;BME280_temperature;BME280_humidity;BME280_pressure;Samples;Min_cycle;Max_cycle;Signal;HPM_P1;HPM_P2
2023/01/16 02:19:45;;;;;;;5.80;2.40;;;;;;;2.04;69.24;100324.19;103662;1283;604081;-67
2023/01/16 02:22:46;;;;;;;10.20;6.80;;;;;;;2.45;68.32;100313.72;105176;1272;86666;-67
2023/01/16 02:25:32;;;;;;;9.10;3.10;;;;;;;2.37;68.25;100310.27;105230;1269;59586;-69
2023/01/16 02:28:21;;;;;;;5.20;1.90;;;;;;;2.33;68.21;100310.45;105216;1269;65801;-68
2023/01/16 02:31:19;;;;;;;6.10;2.10;;;;;;;2.32;68.27;100306.70;105343;1264;63368;-68
2023/01/16 02:33:56;;;;;;;6.10;2.60;;;;;;;2.30;68.35;100305.91;105154;1266;65118;-68
2023/01/16 02:36:55;;;;;;;9.20;3.40;;;;;;;2.27;68.58;100309.02;105238;1264;59253;-71
2023/01/16 02:39:36;;;;;;;7.30;3.10;;;;;;;2.20;68.68;100297.20;105314;1264;59269;-68
2023/01/16 02:42:42;;;;;;;8.70;4.00;;;;;;;2.12;68.75;100292.04;105251;1264;65767;-69
2023/01/16 02:45:22;;;;;;;6.30;2.20;;;;;;;2.02;68.92;100289.89;105320;1264;63055;-66
2023/01/16 02:47:54;;;;;;;7.60;2.30;;;;;;;1.90;69.02;100285.42;105319;1264;65001;-69
2023/01/16 02:51:03;;;;;;;6.70;2.30;;;;;;;1.81;69.32;100287.06;105333;1269;59567;-66
2023/01/16 02:53:56;;;;;;;7.20;2.30;;;;;;;1.73;69.49;100292.27;105363;1264;62279;-68
2023/01/16 02:56:28;;;;;;;6.30;2.40;;;;;;;1.73;69.55;100288.65;105048;1264;66827;-69
2023/01/16 02:58:55;;;;;;;11.30;2.70;;;;;;;1.75;69.62;100288.00;105361;1264;72288;-68
2023/01/16 03:01:22;;;;;;;6.10;2.00;;;;;;;1.77;69.73;100294.48;105333;1263;73641;-69
2023/01/16 03:03:51;;;;;;;5.80;1.90;;;;;;;1.80;69.88;100292.96;105316;1269;60371;-68
2023/01/16 03:06:21;;;;;;;6.30;1.60;;;;;;;1.82;70.01;100291.30;105221;1269;62175;-68
2023/01/16 03:09:13;;;;;;;8.30;2.40;;;;;;;1.81;70.08;100288.09;105311;1264;75248;-68
2023/01/16 03:12:05;;;;;;;7.20;3.00;;;;;;;1.79;70.24;100286.64;105493;1269;62856;-67
2023/01/16 03:15:04;;;;;;;7.70;3.00;;;;;;;1.75;70.25;100285.45;105045;1264;65261;-68
2023/01/16 03:17:49;;;;;;;6.80;2.30;;;;;;;1.73;70.38;100278.78;105321;1267;61487;-68
2023/01/16 03:20:28;;;;;;;5.30;2.30;;;;;;;1.69;70.40;100279.11;105294;1264;59633;-68
2023/01/16 03:23:02;;;;;;;10.40;2.60;;;;;;;1.63;70.42;100278.17;105318;1269;66036;-67
2023/01/16 03:25:35;;;;;;;9.20;3.70;;;;;;;1.58;70.52;100284.63;105356;1264;63838;-69
2023/01/16 03:28:10;;;;;;;6.00;2.30;;;;;;;1.58;70.47;100282.87;105351;1265;65949;-66
2023/01/16 03:30:49;;;;;;;4.30;1.40;;;;;;;1.62;70.37;100283.73;105461;1270;59698;-69
2023/01/16 03:33:31;;;;;;;7.00;1.90;;;;;;;1.67;70.49;100280.95;105331;1264;59665;-68
2023/01/16 03:36:05;;;;;;;6.40;3.20;;;;;;;1.75;70.61;100277.13;105352;1268;66509;-67
2023/01/16 05:01:56;;;;;;;8.90;3.80;;;;;;;2.20;70.92;100247.56;105393;1263;59669;-67
2023/01/16 05:04:23;;;;;;;6.40;2.20;;;;;;;2.14;70.90;100249.54;105172;1264;59765;-67
2023/01/16 05:06:50;;;;;;;5.30;1.80;;;;;;;2.08;70.89;100251.05;105085;1265;66479;-68
2023/01/16 05:09:17;;;;;;;10.00;3.40;;;;;;;2.01;70.94;100246.53;105129;1264;71322;-68
2023/01/16 05:11:44;;;;;;;10.30;3.80;;;;;;;1.94;71.03;100245.29;105131;1266;74260;-68
2023/01/16 05:14:11;;;;;;;6.70;2.50;;;;;;;1.89;71.15;100245.34;105155;1267;61858;-67
2023/01/16 05:16:38;;;;;;;7.70;2.60;;;;;;;1.87;71.30;100244.77;105395;1266;60802;-67
2023/01/16 05:19:05;;;;;;;6.00;2.00;;;;;;;1.93;71.23;100241.88;105180;1269;75132;-67
2023/01/16 05:21:32;;;;;;;6.00;1.90;;;;;;;2.04;71.21;100242.24;105203;1264;72375;-68
2023/01/16 05:23:59;;;;;;;5.60;2.00;;;;;;;2.12;71.08;100241.02;105179;1267;74800;-67
2023/01/16 05:26:26;;;;;;;7.10;1.90;;;;;;;2.20;71.07;100239.07;105128;1264;63192;-68
2023/01/16 05:28:53;;;;;;;4.50;1.50;;;;;;;2.31;71.18;100237.53;105225;1264;61252;-67
2023/01/16 05:31:20;;;;;;;6.50;2.60;;;;;;;2.38;71.36;100234.02;105240;1264;73293;-67
2023/01/16 05:33:47;;;;;;;6.70;2.00;;;;;;;2.43;71.31;100230.34;105183;1269;62716;-68
2023/01/16 05:36:14;;;;;;;7.40;3.30;;;;;;;2.46;71.30;100222.05;105149;1264;66097;-66
2023/01/16 05:38:40;;;;;;;7.50;3.20;;;;;;;2.49;71.24;100216.73;105301;1264;59676;-66
2023/01/16 05:41:07;;;;;;;8.40;3.30;;;;;;;2.46;70.93;100214.28;105301;1264;62721;-66
2023/01/16 05:43:35;;;;;;;6.90;2.70;;;;;;;2.39;70.90;100217.02;105169;1264;66250;-67
2023/01/16 05:46:03;;;;;;;10.70;3.70;;;;;;;2.32;70.91;100220.31;105117;1264;72396;-67
2023/01/16 05:48:35;;;;;;;7.60;3.80;;;;;;;2.27;71.12;100215.20;105160;1267;65155;-66
2023/01/16 05:51:03;;;;;;;6.20;3.10;;;;;;;2.25;71.30;100216.70;105177;1264;59771;-66
2023/01/16 05:53:30;;;;;;;7.20;3.00;;;;;;;2.21;71.38;100212.36;105117;1264;61281;-67
2023/01/16 05:55:58;;;;;;;8.10;3.80;;;;;;;2.19;71.42;100214.17;105158;1264;74076;-68
2023/01/16 06:11:22;;;;;;;7.50;3.80;;;;;;;3.03;70.37;100213.49;103465;1282;614136;-67
2023/01/16 06:13:49;;;;;;;10.60;6.20;;;;;;;3.39;69.73;100210.58;104985;1264;88577;-66
2023/01/16 06:16:16;;;;;;;10.40;6.30;;;;;;;3.47;69.51;100206.34;105140;1269;58757;-68
2023/01/16 06:18:43;;;;;;;8.10;2.60;;;;;;;3.46;69.39;100208.33;105065;1267;64348;-67
2023/01/16 06:21:10;;;;;;;6.60;2.50;;;;;;;3.39;69.40;100209.38;105180;1266;62778;-66
2023/01/16 06:23:37;;;;;;;10.10;6.90;;;;;;;3.32;69.61;100211.14;105051;1266;66191;-68
2023/01/16 06:26:05;;;;;;;7.30;2.30;;;;;;;3.27;69.85;100214.52;105058;1267;60288;-67
2023/01/16 06:28:32;;;;;;;6.90;3.00;;;;;;;3.22;69.88;100211.85;105119;1269;59142;-67
2023/01/16 06:30:59;;;;;;;7.90;2.80;;;;;;;3.14;69.94;100210.50;105083;1266;72439;-65
2023/01/16 06:33:26;;;;;;;8.50;2.70;;;;;;;3.08;69.97;100210.48;105165;1269;63794;-68
2023/01/16 06:35:53;;;;;;;6.30;2.10;;;;;;;3.00;69.89;100213.86;105154;1267;73308;-67
2023/01/16 06:38:20;;;;;;;6.80;2.00;;;;;;;2.88;69.87;100214.96;105281;1267;60403;-65
2023/01/16 06:40:47;;;;;;;6.40;2.20;;;;;;;2.80;70.03;100215.52;105213;1269;59582;-65
2023/01/16 06:43:16;;;;;;;6.10;2.30;;;;;;;2.80;69.97;100219.02;105146;1266;66682;-66
2023/01/16 06:45:45;;;;;;;8.90;1.90;;;;;;;2.84;69.98;100222.64;105230;1266;63600;-66
2023/01/16 06:48:12;;;;;;;5.30;2.00;;;;;;;2.88;70.03;100222.43;105109;1266;65265;-68
2023/01/16 06:50:39;;;;;;;5.80;2.10;;;;;;;2.91;69.99;100224.52;105248;1269;62848;-67
2023/01/16 06:53:05;;;;;;;14.90;7.30;;;;;;;2.95;70.17;100222.58;105078;1266;59501;-67
2023/01/16 06:55:32;;;;;;;6.60;2.60;;;;;;;2.99;70.40;100224.96;105164;1266;74204;-67
2023/01/16 06:57:59;;;;;;;9.70;5.60;;;;;;;3.01;70.46;100223.30;105204;1266;62624;-68
2023/01/16 07:00:26;;;;;;;4.50;1.90;;;;;;;3.01;70.44;100219.86;105270;1266;74953;-68
2023/01/16 07:02:54;;;;;;;5.90;2.10;;;;;;;2.96;70.37;100217.30;105183;1265;59754;-67
2023/01/16 07:05:22;;;;;;;5.30;2.60;;;;;;;2.93;70.50;100215.55;105216;1265;59658;-66
2023/01/16 07:07:49;;;;;;;9.00;2.50;;;;;;;2.91;70.54;100217.39;105251;1266;66577;-68
2023/01/16 07:10:16;;;;;;;6.60;3.30;;;;;;;2.87;70.35;100215.50;105177;1266;71613;-67
2023/01/16 07:12:43;;;;;;;5.80;2.50;;;;;;;2.83;70.57;100216.98;105178;1270;74936;-67
2023/01/16 07:23:32;;;;;;;5.50;1.70;;;;;;;2.78;70.52;100198.64;105026;1265;62546;-68
2023/01/16 07:26:01;;;;;;;5.20;1.90;;;;;;;2.84;70.45;100195.59;105421;1267;74224;-68
2023/01/16 07:28:28;;;;;;;5.60;1.60;;;;;;;2.87;70.42;100192.31;105231;1266;62097;-68
2023/01/16 07:30:56;;;;;;;5.50;2.10;;;;;;;2.91;70.44;100188.48;105038;1266;61403;-67
2023/01/16 07:33:23;;;;;;;9.70;5.30;;;;;;;2.96;70.65;100182.99;105232;1269;66640;-67
2023/01/16 07:35:50;;;;;;;6.80;2.20;;;;;;;2.99;70.76;100180.09;105128;1266;72488;-68
2023/01/16 07:38:17;;;;;;;5.90;2.00;;;;;;;3.02;71.11;100183.07;105036;1266;65035;-68
2023/01/16 07:40:44;;;;;;;9.10;3.70;;;;;;;3.07;71.30;100182.27;105099;1269;60568;-66
2023/01/16 07:43:11;;;;;;;9.60;3.30;;;;;;;3.10;71.32;100184.36;105164;1266;60210;-68
2023/01/16 07:45:38;;;;;;;7.30;2.90;;;;;;;3.13;71.31;100182.16;105054;1265;73872;-67
2023/01/16 07:48:05;;;;;;;8.50;3.30;;;;;;;3.13;71.28;100186.10;105170;1266;72367;-67
2023/01/16 07:50:32;;;;;;;6.20;2.30;;;;;;;3.13;71.15;100181.48;105216;1266;75018;-68
2023/01/16 07:52:59;;;;;;;11.10;5.60;;;;;;;3.11;71.22;100184.30;105237;1266;59761;-68
2023/01/16 07:55:26;;;;;;;5.70;1.80;;;;;;;3.10;71.04;100180.91;105006;1271;62666;-68
2023/01/16 07:57:53;;;;;;;7.70;2.30;;;;;;;3.13;70.94;100180.20;105155;1269;66229;-67
2023/01/16 08:00:20;;;;;;;3.90;1.30;;;;;;;3.20;70.86;100174.67;105076;1266;75501;-67
2023/01/16 08:02:47;;;;;;;6.10;1.70;;;;;;;3.26;70.59;100179.92;105124;1265;64896;-67
2023/01/16 08:05:14;;;;;;;9.00;5.70;;;;;;;3.33;70.78;100178.14;105134;1269;59650;-67
2023/01/16 08:07:41;;;;;;;6.80;2.70;;;;;;;3.38;70.88;100178.90;105103;1265;63265;-66
2023/01/16 08:10:09;;;;;;;6.10;2.30;;;;;;;3.41;70.87;100181.17;105023;1272;66871;-66
2023/01/16 08:12:38;;;;;;;5.90;2.80;;;;;;;3.43;70.83;100179.50;105066;1266;62739;-67
2023/01/16 08:15:05;;;;;;;6.40;2.40;;;;;;;3.44;70.77;100181.73;105037;1268;74743;-68
2023/01/16 08:17:32;;;;;;;5.70;2.50;;;;;;;3.44;70.81;100176.02;104982;1270;59725;-67
2023/01/16 08:20:01;;;;;;;7.30;2.80;;;;;;;3.42;70.66;100168.14;104968;1270;59659;-67
2023/01/16 08:22:28;;;;;;;7.40;2.20;;;;;;;3.37;70.45;100167.02;104995;1265;65304;-67
2023/01/16 08:24:55;;;;;;;9.10;5.30;;;;;;;3.29;70.37;100157.00;104986;1266;72267;-67
2023/01/16 08:27:24;;;;;;;6.60;1.80;;;;;;;3.26;70.54;100160.65;104959;1268;66100;-68
2023/01/16 08:29:51;;;;;;;8.10;4.30;;;;;;;3.29;70.54;100162.73;105017;1269;59672;-67
2023/01/16 08:32:18;;;;;;;6.00;1.20;;;;;;;3.34;70.25;100164.22;104947;1266;59769;-67
2023/01/16 08:34:45;;;;;;;4.50;1.40;;;;;;;3.37;70.18;100163.01;104952;1266;66608;-67
2023/01/16 08:37:12;;;;;;;5.80;1.90;;;;;;;3.40;70.23;100165.98;104960;1265;63625;-68
2023/01/16 08:39:38;;;;;;;4.70;1.90;;;;;;;3.43;70.35;100163.94;104959;1267;66637;-67
2023/01/16 08:53:08;;;;;;;8.60;3.20;;;;;;;3.56;70.97;100167.21;104924;1268;66438;-67
2023/01/16 08:55:35;;;;;;;6.30;2.30;;;;;;;3.52;70.81;100165.66;105288;1268;59631;-66
2023/01/16 08:58:02;;;;;;;7.90;2.60;;;;;;;3.47;70.67;100165.08;105385;1264;59724;-67
2023/01/16 09:00:29;;;;;;;6.20;2.80;;;;;;;3.41;70.72;100164.54;105418;1264;65512;-68
2023/01/16 09:02:59;;;;;;;5.50;2.10;;;;;;;3.38;70.86;100155.38;105346;1265;71369;-68
2023/01/16 09:05:26;;;;;;;7.80;4.80;;;;;;;3.41;71.00;100157.43;105127;1264;66087;-67
2023/01/16 09:07:53;;;;;;;6.60;2.20;;;;;;;3.49;70.81;100150.27;105322;1264;59753;-67
2023/01/16 09:10:20;;;;;;;5.20;1.80;;;;;;;3.56;70.96;100148.83;105331;1262;61252;-68
2023/01/16 09:15:33;;;;;;;4.90;2.80;;;;;;;3.74;70.87;100148.73;105778;1257;63879;-67
2023/01/16 09:18:00;;;;;;;7.90;3.50;;;;;;;3.79;70.94;100147.40;105812;1258;65045;-67
2023/01/16 09:20:27;;;;;;;7.70;2.50;;;;;;;3.81;71.01;100144.31;105680;1260;61786;-67
2023/01/16 09:23:01;;;;;;;8.10;2.90;;;;;;;3.83;71.00;100143.69;105801;1258;59569;-68
2023/01/16 09:25:28;;;;;;;8.60;3.20;;;;;;;3.83;70.92;100140.91;105662;1262;66502;-66
2023/01/16 09:27:55;;;;;;;8.20;3.70;;;;;;;3.80;70.80;100139.15;105737;1258;62791;-66
2023/01/16 09:30:22;;;;;;;7.00;2.60;;;;;;;3.73;70.68;100139.00;105712;1260;66142;-68
2023/01/16 09:32:49;;;;;;;10.80;7.00;;;;;;;3.67;70.60;100135.37;105788;1261;59841;-67
2023/01/16 09:35:16;;;;;;;6.50;2.40;;;;;;;3.62;70.67;100131.83;105853;1258;59596;-67
2023/01/16 09:37:43;;;;;;;5.80;2.30;;;;;;;3.65;70.66;100130.65;105532;1260;74156;-67
2023/01/16 09:40:16;;;;;;;9.20;5.90;;;;;;;3.70;70.58;100128.09;105753;1257;62471;-67
2023/01/16 09:45:36;;;;;;;5.90;2.30;;;;;;;3.85;70.79;100130.02;105381;1262;59570;-68
2023/01/16 09:48:05;;;;;;;9.10;3.90;;;;;;;3.91;70.84;100125.71;105662;1262;59656;-67
2023/01/16 09:50:42;;;;;;;9.50;3.30;;;;;;;3.92;70.87;100123.74;105504;1257;66424;-69
2023/01/16 09:59:06;;;;;;;7.60;2.80;;;;;;;3.81;70.86;100115.19;105775;1263;62123;-68
2023/01/16 10:01:36;;;;;;;9.10;3.70;;;;;;;3.76;70.86;100115.81;105786;1257;59634;-67
2023/01/16 10:07:21;;;;;;;7.80;3.10;;;;;;;3.68;71.13;100108.62;102122;1295;601457;-68
2023/01/16 10:10:01;;;;;;;7.80;3.50;;;;;;;3.83;70.68;100100.83;104548;1269;59232;-68
2023/01/16 10:12:32;;;;;;;12.70;7.70;;;;;;;3.90;70.74;100091.02;104864;1264;59446;-67
2023/01/16 10:15:17;;;;;;;9.30;3.50;;;;;;;3.97;70.78;100083.89;104858;1264;65639;-69
2023/01/16 10:18:09;;;;;;;6.70;3.80;;;;;;;4.01;70.84;100075.52;104592;1263;63795;-67
2023/01/16 10:21:04;;;;;;;8.40;4.40;;;;;;;4.02;70.86;100067.31;104414;1261;286264;-67
2023/01/16 10:23:53;;;;;;;14.20;9.80;;;;;;;3.99;70.91;100064.55;104697;1266;59298;-67
2023/01/16 10:26:57;;;;;;;10.80;5.50;;;;;;;3.95;70.97;100058.85;108837;1260;57187;-68
2023/01/16 10:29:32;;;;;;;8.70;3.70;;;;;;;3.93;70.96;100051.84;108757;1261;64585;-68
2023/01/16 10:32:11;;;;;;;16.70;11.20;;;;;;;3.91;70.90;100051.42;105867;1260;62689;-68
2023/01/16 10:34:51;;;;;;;9.50;4.10;;;;;;;3.89;70.86;100043.75;104923;1266;65185;-69
2023/01/16 10:37:19;;;;;;;9.50;3.90;;;;;;;3.95;70.85;100041.35;104873;1260;59535;-68
2023/01/16 10:39:45;;;;;;;15.90;9.80;;;;;;;4.00;70.74;100039.45;105122;1261;59611;-69
2023/01/16 10:50:46;;;;;;;11.50;5.30;;;;;;;4.19;70.87;100032.44;104948;1265;59690;-69
2023/01/16 10:53:13;;;;;;;9.60;4.30;;;;;;;4.16;70.81;100029.53;104812;1265;59611;-69
2023/01/16 10:55:43;;;;;;;14.70;10.40;;;;;;;4.12;70.92;100027.70;104780;1266;66502;-69
2023/01/16 10:58:40;;;;;;;11.40;4.70;;;;;;;4.07;70.96;100023.41;104913;1265;62829;-69
2023/01/16 11:01:12;;;;;;;;;;;;;;;4.10;70.84;100024.47;105106;1266;65204;-69
2023/01/16 11:03:50;;;;;;;9.10;3.40;;;;;;;4.14;70.66;100019.91;104790;1266;59676;-68
2023/01/16 11:06:20;;;;;;;10.40;3.40;;;;;;;4.18;70.70;100021.08;104791;1266;59648;-69
2023/01/16 11:08:48;;;;;;;8.50;4.40;;;;;;;4.23;70.65;100019.22;104689;1263;66514;-69
2023/01/16 11:20:07;;;;;;;15.10;7.80;;;;;;;4.15;70.82;100015.36;104949;1263;59517;-69
2023/01/16 11:22:38;;;;;;;10.30;6.20;;;;;;;4.10;70.73;100016.35;104773;1266;66245;-69
2023/01/16 11:25:06;;;;;;;9.20;4.80;;;;;;;4.04;70.80;100016.34;104971;1263;63865;-68
2023/01/16 11:27:34;;;;;;;10.50;4.80;;;;;;;3.98;70.84;100020.89;104918;1264;65081;-70
2023/01/16 11:30:10;;;;;;;10.60;4.90;;;;;;;3.92;70.88;100020.82;105042;1264;59618;-70
2023/01/16 11:32:37;;;;;;;9.00;4.50;;;;;;;3.94;70.92;100018.63;104789;1261;59621;-68
2023/01/16 11:35:10;;;;;;;10.50;4.30;;;;;;;4.00;70.83;100008.94;104761;1260;65636;-69
2023/01/16 11:37:37;;;;;;;9.30;4.90;;;;;;;4.05;70.88;100008.64;104776;1261;63754;-69
2023/01/16 11:40:05;;;;;;;14.30;9.90;;;;;;;4.12;71.05;100013.07;104706;1264;66241;-68
2023/01/16 11:48:25;;;;;;;14.70;5.10;;;;;;;4.18;71.07;100006.81;104720;1261;74017;-69
2023/01/16 11:50:56;;;;;;;10.20;4.60;;;;;;;4.18;71.07;100006.68;104789;1266;63646;-69
2023/01/16 11:53:28;;;;;;;16.00;10.70;;;;;;;4.16;70.96;100008.14;104770;1263;65997;-69
2023/01/16 11:56:06;;;;;;;12.50;5.60;;;;;;;4.13;70.84;100008.51;104737;1266;59618;-67
2023/01/16 11:58:48;;;;;;;9.10;3.40;;;;;;;4.15;70.71;100003.38;105021;1263;59820;-68
2023/01/16 15:59:33;;;;;;;7.70;3.70;;;;;;;4.20;72.81;99915.17;102194;1290;602850;-68
2023/01/16 16:19:32;;;;;;;11.50;8.10;;;;;;;4.97;70.52;99885.75;101989;1295;603915;-69
2023/01/16 16:24:47;;;;;;;15.90;8.80;;;;;;;5.08;69.78;99884.33;104362;1270;59162;-68
2023/01/16 16:27:15;;;;;;;7.70;3.00;;;;;;;5.07;69.89;99881.95;105880;1266;65600;-70
2023/01/16 16:29:48;;;;;;;14.00;9.30;;;;;;;5.04;69.99;99881.08;108415;1267;62791;-68
2023/01/16 16:32:16;;;;;;;16.40;10.50;;;;;;;4.98;70.01;99875.23;108270;1262;165759;-70
2023/01/16 16:34:55;;;;;;;16.50;10.80;;;;;;;4.89;70.17;99866.27;108330;1267;57385;-69
2023/01/16 16:37:22;;;;;;;17.50;10.40;;;;;;;4.82;70.23;99867.55;106347;1270;58739;-69
2023/01/16 16:40:11;;;;;;;10.10;4.30;;;;;;;4.77;70.32;99867.90;104725;1269;64952;-69
2023/01/16 16:42:44;;;;;;;8.50;4.30;;;;;;;4.68;70.52;99868.12;104530;1270;62302;-70
2023/01/16 16:45:17;;;;;;;16.50;11.80;;;;;;;4.59;70.69;99870.05;104717;1264;64879;-70
2023/01/16 16:47:48;;;;;;;16.00;11.10;;;;;;;4.49;70.73;99869.81;104696;1269;59776;-69
2023/01/16 16:50:30;;;;;;;8.40;2.80;;;;;;;4.46;70.69;99870.89;104750;1262;59652;-73
2023/01/16 16:53:04;;;;;;;9.60;3.80;;;;;;;4.48;70.85;99863.67;104610;1270;66631;-70
2023/01/16 16:55:33;;;;;;;12.30;4.60;;;;;;;4.48;70.90;99859.32;104828;1264;63838;-70
2023/01/16 16:58:02;;;;;;;10.70;4.70;;;;;;;4.50;71.12;99861.59;104600;1263;65364;-69
2023/01/16 17:00:28;;;;;;;17.20;11.10;;;;;;;4.52;71.34;99861.13;104703;1264;59650;-71
2023/01/16 17:03:09;;;;;;;16.70;11.90;;;;;;;4.53;71.34;99857.23;104705;1277;59692;-69
2023/01/16 17:05:36;;;;;;;12.30;5.20;;;;;;;4.52;71.32;99857.11;104684;1262;65077;-69
2023/01/16 17:08:03;;;;;;;10.70;6.10;;;;;;;4.50;71.50;99854.30;104736;1267;62760;-69
2023/01/16 17:10:30;;;;;;;11.20;5.00;;;;;;;4.46;71.59;99852.84;104549;1266;65789;-69
2023/01/16 17:12:57;;;;;;;12.20;5.00;;;;;;;4.39;71.69;99847.21;104560;1270;59558;-69
2023/01/16 17:15:24;;;;;;;19.70;12.30;;;;;;;4.31;71.69;99841.06;104647;1264;59966;-69
2023/01/16 17:17:56;;;;;;;18.40;13.40;;;;;;;4.26;71.90;99843.30;104702;1263;65413;-69
2023/01/16 17:20:24;;;;;;;18.10;12.50;;;;;;;4.23;72.02;99844.90;104849;1263;63815;-69
2023/01/16 17:22:51;;;;;;;9.00;2.80;;;;;;;4.29;71.99;99841.89;104662;1264;66231;-70
2023/01/16 17:25:21;;;;;;;8.80;3.40;;;;;;;4.34;72.00;99837.79;104710;1264;59704;-70
2023/01/16 17:27:49;;;;;;;9.30;4.90;;;;;;;4.38;72.07;99835.10;104749;1263;59539;-70
2023/01/16 17:30:17;;;;;;;11.70;4.90;;;;;;;4.42;72.31;99833.98;104696;1263;66439;-69
2023/01/16 17:32:44;;;;;;;21.40;12.60;;;;;;;4.42;72.45;99829.95;104813;1264;63745;-70
2023/01/16 17:35:15;;;;;;;12.60;6.00;;;;;;;4.42;72.63;99825.30;104750;1271;65267;-70
2023/01/16 17:37:42;;;;;;;21.00;12.30;;;;;;;4.39;72.56;99823.23;104717;1268;59713;-70
2023/01/16 17:40:11;;;;;;;12.40;6.00;;;;;;;4.34;72.69;99820.92;104571;1268;62650;-69
2023/01/16 17:48:31;;;;;;;12.20;5.50;;;;;;;4.14;72.93;99822.52;104268;1271;65145;-69
2023/01/16 17:51:01;;;;;;;12.50;4.50;;;;;;;4.16;72.94;99818.10;104768;1267;59716;-70
2023/01/16 17:53:29;;;;;;;17.10;11.90;;;;;;;4.24;72.91;99817.73;104773;1266;60002;-71
2023/01/16 17:55:57;;;;;;;10.00;4.70;;;;;;;4.29;72.88;99819.33;104853;1263;65507;-70
2023/01/16 17:58:38;;;;;;;10.30;5.10;;;;;;;4.34;72.91;99815.75;104799;1270;62574;-70
2023/01/16 18:01:05;;;;;;;10.90;5.40;;;;;;;4.43;73.29;99811.13;104758;1268;64821;-69
2023/01/16 18:03:33;;;;;;;21.70;13.50;;;;;;;4.51;73.34;99812.41;104655;1268;59705;-70
2023/01/16 18:06:05;;;;;;;19.70;13.40;;;;;;;4.53;73.28;99817.29;104624;1268;59625;-70
2023/01/16 18:08:32;;;;;;;13.70;6.40;;;;;;;4.56;73.43;99817.29;105002;1263;65305;-69
2023/01/16 18:17:20;;;;;;;14.90;6.10;;;;;;;4.57;73.33;99814.96;104865;1263;62692;-70
2023/01/16 18:18:21;;;;;;;12.60;6.80;;;;;;;4.38;73.36;99801.78;104483;1267;59623;-69
2023/01/16 18:21:59;;;;;;;14.30;6.70;;;;;;;4.35;73.49;99796.77;104566;1270;59286;-69
2023/01/16 18:23:35;;;;;;;9.00;4.50;;;;;;;4.44;73.43;99797.91;104654;1267;64581;-70
2023/01/16 18:26:03;;;;;;;13.40;6.40;;;;;;;4.56;73.26;99799.23;104565;1272;62834;-70
2023/01/16 18:28:29;;;;;;;10.20;5.10;;;;;;;4.66;73.13;99795.95;104486;1264;173318;-71
2023/01/16 18:31:04;;;;;;;11.20;6.20;;;;;;;4.74;73.03;99792.15;104617;1269;59338;-70
2023/01/16 18:33:34;;;;;;;12.60;5.80;;;;;;;4.82;73.12;99790.92;104557;1263;59449;-70
2023/01/16 18:36:06;;;;;;;18.90;13.40;;;;;;;4.88;73.23;99793.64;104774;1269;65455;-70
2023/01/16 19:03:30;;;;;;;13.00;5.30;;;;;;;4.86;73.13;99777.61;104637;1266;65684;-69
2023/01/16 19:05:57;;;;;;;21.80;12.50;;;;;;;4.92;73.40;99781.60;104524;1263;63869;-70
2023/01/16 19:08:24;;;;;;;17.70;11.70;;;;;;;4.97;73.33;99779.88;104605;1267;66310;-69
2023/01/16 19:10:52;;;;;;;10.60;5.70;;;;;;;5.06;73.17;99779.78;104517;1263;59973;-69
2023/01/16 19:13:19;;;;;;;17.40;13.00;;;;;;;5.13;72.94;99777.77;105084;1263;59826;-69
2023/01/16 19:18:33;;;;;;;11.60;5.10;;;;;;;5.12;72.72;99774.38;104670;1264;62527;-69
2023/01/16 19:21:00;;;;;;;13.20;5.40;;;;;;;5.09;72.70;99773.90;104637;1265;66195;-68
2023/01/16 19:23:27;;;;;;;28.00;7.10;;;;;;;5.10;72.54;99772.27;104577;1263;59694;-69
2023/01/16 19:25:54;;;;;;;9.30;4.10;;;;;;;5.17;72.42;99769.50;105106;1266;59646;-70
2023/01/16 19:28:21;;;;;;;13.20;6.10;;;;;;;5.21;72.24;99767.34;104727;1264;66419;-70
2023/01/16 19:30:49;;;;;;;10.70;5.10;;;;;;;5.22;72.35;99765.33;104745;1267;63843;-70
2023/01/16 19:33:16;;;;;;;9.90;4.50;;;;;;;5.26;72.41;99770.48;105053;1262;65135;-70
2023/01/16 19:35:43;;;;;;;16.90;12.20;;;;;;;5.25;72.36;99772.42;105306;1257;59766;-71
2023/01/16 19:38:10;;;;;;;9.50;4.40;;;;;;;5.25;72.46;99776.27;105134;1257;59618;-70
2023/01/16 19:40:37;;;;;;;18.10;11.40;;;;;;;5.24;72.43;99774.59;105349;1262;66597;-69
2023/01/16 19:46:41;;;;;;;11.10;4.10;;;;;;;5.20;72.14;99776.58;105062;1257;66203;-70
2023/01/16 19:48:57;;;;;;;9.20;4.10;;;;;;;5.26;72.16;99775.66;105140;1262;59660;-69
2023/01/16 19:51:25;;;;;;;10.50;5.20;;;;;;;5.32;72.05;99774.73;105118;1263;59689;-71
2023/01/16 19:53:53;;;;;;;20.80;13.30;;;;;;;5.38;72.11;99779.86;105333;1257;65488;-70
2023/01/16 19:56:20;;;;;;;16.50;11.50;;;;;;;5.41;72.12;99778.46;105753;1257;63823;-70
2023/01/16 19:58:47;;;;;;;15.70;10.60;;;;;;;5.40;72.09;99778.17;105225;1261;65194;-70
2023/01/16 20:01:14;;;;;;;10.10;4.50;;;;;;;5.39;72.08;99775.43;105096;1257;59679;-69
2023/01/16 20:03:45;;;;;;;16.30;11.10;;;;;;;5.38;72.07;99770.48;105222;1262;59638;-70
2023/01/16 20:06:13;;;;;;;10.50;4.40;;;;;;;5.35;71.94;99770.00;105414;1261;65507;-70
2023/01/16 20:08:40;;;;;;;9.60;4.70;;;;;;;5.38;71.86;99764.79;105120;1263;64321;-69
2023/01/16 20:11:16;;;;;;;10.10;4.10;;;;;;;5.43;71.63;99763.91;105259;1262;65169;-70
2023/01/16 22:31:22;;;;;;;12.70;7.80;;;;;;;5.95;70.56;99651.84;106417;1262;331138;-69
2023/01/16 22:33:51;;;;;;;14.80;8.40;;;;;;;5.91;70.53;99653.36;107787;1244;59393;-70
2023/01/16 22:36:18;;;;;;;14.30;7.90;;;;;;;5.84;70.54;99647.26;107818;1246;64547;-70
2023/01/16 22:38:45;;;;;;;11.80;7.80;;;;;;;5.82;70.51;99642.86;107618;1249;62318;-67
2023/01/16 22:41:17;;;;;;;13.20;8.70;;;;;;;5.83;70.40;99641.46;107794;1246;64972;-70
2023/01/16 22:46:30;;;;;;;7.60;3.80;;;;;;;5.81;70.61;99633.52;107885;1245;59251;-67
2023/01/16 22:48:58;;;;;;;14.40;9.20;;;;;;;5.78;70.70;99629.08;107857;1244;63523;-67
2023/01/16 22:51:26;;;;;;;14.50;8.70;;;;;;;5.74;70.64;99629.66;107878;1244;62490;-67
2023/01/16 22:53:55;;;;;;;11.60;8.00;;;;;;;5.72;70.81;99626.69;107769;1246;65025;-68
2023/01/16 22:56:21;;;;;;;11.30;4.30;;;;;;;5.69;70.72;99627.27;107859;1246;59658;-65
2023/01/16 22:58:48;;;;;;;8.00;3.30;;;;;;;5.69;70.62;99625.86;107808;1246;59607;-68
2023/01/16 23:01:17;;;;;;;6.40;2.80;;;;;;;5.70;70.61;99623.86;107705;1248;64415;-66
2023/01/16 23:03:44;;;;;;;11.20;7.70;;;;;;;5.71;70.54;99627.14;108205;1243;61508;-64
2023/01/16 23:06:12;;;;;;;7.90;3.30;;;;;;;5.68;70.63;99623.13;108021;1241;64901;-74
2023/01/16 23:27:18;;;;;;;12.30;8.50;;;;;;;6.33;69.20;99587.27;102447;1292;613508;-66
2023/01/16 23:29:45;;;;;;;11.90;7.70;;;;;;;6.51;68.72;99579.30;105057;1264;92897;-65
2023/01/16 23:32:12;;;;;;;12.20;8.10;;;;;;;6.42;68.57;99574.21;105337;1266;59336;-66
2023/01/16 23:34:39;;;;;;;11.10;7.30;;;;;;;6.31;68.76;99574.02;105360;1266;64633;-67
2023/01/16 23:37:06;;;;;;;13.10;8.10;;;;;;;6.25;68.81;99573.58;105295;1264;62540;-68
2023/01/16 23:39:33;;;;;;;11.50;7.70;;;;;;;6.20;68.77;99570.65;105292;1267;64721;-66
2023/01/16 23:44:46;;;;;;;11.20;4.40;;;;;;;6.10;69.21;99572.29;105374;1264;59341;-64
2023/01/16 23:47:18;;;;;;;11.90;8.10;;;;;;;6.03;69.41;99573.11;105277;1264;63673;-65
2023/01/16 23:49:48;;;;;;;11.80;8.20;;;;;;;5.98;69.60;99567.61;105534;1264;62429;-66
2023/01/16 23:52:26;;;;;;;9.20;3.50;;;;;;;5.90;69.66;99559.96;105281;1267;64035;-64
2023/01/16 23:54:53;;;;;;;15.20;8.90;;;;;;;5.79;69.80;99560.94;105292;1265;59735;-65
2023/01/16 23:57:25;;;;;;;10.00;4.10;;;;;;;5.70;70.10;99562.30;105305;1267;59778;-66
2023/01/16 23:59:52;;;;;;;12.80;8.60;;;;;;;5.68;70.31;99558.27;105388;1266;65373;-66
